sensor_id;sensor_type;location;lat;lon;timestamp;temperature;humidity
18406;DHT22;9329;48.720;9.588;2022-08-03T00:00:56;20.40;99.90
18406;DHT22;9329;48.720;9.588;2022-08-03T00:03:23;20.20;99.90
18406;DHT22;9329;48.720;9.588;2022-08-03T00:05:50;19.90;99.90
18406;DHT22;9329;48.720;9.588;2022-08-03T00:08:19;20.00;99.90
18406;DHT22;9329;48.720;9.588;2022-08-03T00:10:46;19.70;99.90
18406;DHT22;9329;48.720;9.588;2022-08-03T00:13:13;20.00;99.90
18406;DHT22;9329;48.720;9.588;2022-08-03T00:15:41;20.00;99.90
18406;DHT22;9329;48.720;9.588;2022-08-03T00:18:08;19.70;99.90
18406;DHT22;9329;48.720;9.588;2022-08-03T00:20:36;19.50;99.90
18406;DHT22;9329;48.720;9.588;2022-08-03T00:23:03;19.40;99.90
18406;DHT22;9329;48.720;9.588;2022-08-03T00:25:33;19.40;99.90
18406;DHT22;9329;48.720;9.588;2022-08-03T00:28:00;19.50;99.90
18406;DHT22;9329;48.720;9.588;2022-08-03T00:30:27;19.50;99.90
18406;DHT22;9329;48.720;9.588;2022-08-03T00:32:54;19.40;99.90
18406;DHT22;9329;48.720;9.588;2022-08-03T00:35:22;19.50;99.90
18406;DHT22;9329;48.720;9.588;2022-08-03T00:37:49;19.90;99.90
18406;DHT22;9329;48.720;9.588;2022-08-03T00:40:18;19.70;99.90
18406;DHT22;9329;48.720;9.588;2022-08-03T00:42:48;19.50;99.90
18406;DHT22;9329;48.720;9.588;2022-08-03T00:45:17;19.50;99.90
18406;DHT22;9329;48.720;9.588;2022-08-03T00:47:44;19.40;99.90
18406;DHT22;9329;48.720;9.588;2022-08-03T00:50:11;19.40;99.90
18406;DHT22;9329;48.720;9.588;2022-08-03T00:52:39;19.30;99.90
18406;DHT22;9329;48.720;9.588;2022-08-03T00:55:06;19.20;99.90
18406;DHT22;9329;48.720;9.588;2022-08-03T00:57:33;19.60;99.90
18406;DHT22;9329;48.720;9.588;2022-08-03T01:00:04;19.70;99.90
18406;DHT22;9329;48.720;9.588;2022-08-03T01:02:31;19.30;99.90
18406;DHT22;9329;48.720;9.588;2022-08-03T01:04:58;19.50;99.90
18406;DHT22;9329;48.720;9.588;2022-08-03T01:07:32;19.70;99.90
18406;DHT22;9329;48.720;9.588;2022-08-03T01:10:07;19.50;99.90
18406;DHT22;9329;48.720;9.588;2022-08-03T01:12:38;20.00;99.90
18406;DHT22;9329;48.720;9.588;2022-08-03T01:15:14;19.70;99.90
18406;DHT22;9329;48.720;9.588;2022-08-03T01:17:48;19.90;99.90
18406;DHT22;9329;48.720;9.588;2022-08-03T01:20:17;19.50;99.90
18406;DHT22;9329;48.720;9.588;2022-08-03T01:23:00;19.50;99.90
18406;DHT22;9329;48.720;9.588;2022-08-03T01:25:40;19.40;99.90
18406;DHT22;9329;48.720;9.588;2022-08-03T01:28:22;19.70;99.90
18406;DHT22;9329;48.720;9.588;2022-08-03T01:30:58;19.80;99.90
18406;DHT22;9329;48.720;9.588;2022-08-03T01:33:31;19.90;99.90
18406;DHT22;9329;48.720;9.588;2022-08-03T01:36:03;19.50;99.90
18406;DHT22;9329;48.720;9.588;2022-08-03T01:38:33;19.10;99.90
18406;DHT22;9329;48.720;9.588;2022-08-03T01:41:04;19.20;99.90
18406;DHT22;9329;48.720;9.588;2022-08-03T01:43:32;19.50;99.90
18406;DHT22;9329;48.720;9.588;2022-08-03T01:46:02;19.50;99.90
18406;DHT22;9329;48.720;9.588;2022-08-03T01:48:30;19.30;99.90
18406;DHT22;9329;48.720;9.588;2022-08-03T01:50:58;19.10;99.90
18406;DHT22;9329;48.720;9.588;2022-08-03T01:53:26;19.20;99.90
18406;DHT22;9329;48.720;9.588;2022-08-03T01:55:56;19.10;99.90
18406;DHT22;9329;48.720;9.588;2022-08-03T01:58:24;19.00;99.90
18406;DHT22;9329;48.720;9.588;2022-08-03T02:00:54;18.90;99.90
18406;DHT22;9329;48.720;9.588;2022-08-03T02:03:26;18.80;99.90
18406;DHT22;9329;48.720;9.588;2022-08-03T02:05:54;18.80;99.90
18406;DHT22;9329;48.720;9.588;2022-08-03T02:08:23;18.70;99.90
18406;DHT22;9329;48.720;9.588;2022-08-03T02:10:51;18.80;99.90
18406;DHT22;9329;48.720;9.588;2022-08-03T02:13:21;19.00;99.90
18406;DHT22;9329;48.720;9.588;2022-08-03T02:15:50;19.20;99.90
18406;DHT22;9329;48.720;9.588;2022-08-03T02:18:19;19.10;99.90
18406;DHT22;9329;48.720;9.588;2022-08-03T02:20:49;18.90;99.90
18406;DHT22;9329;48.720;9.588;2022-08-03T02:23:17;18.80;99.90
18406;DHT22;9329;48.720;9.588;2022-08-03T02:25:47;19.00;99.90
18406;DHT22;9329;48.720;9.588;2022-08-03T02:28:18;19.30;99.90
18406;DHT22;9329;48.720;9.588;2022-08-03T02:30:51;19.10;99.90
18406;DHT22;9329;48.720;9.588;2022-08-03T02:33:26;19.10;99.90
18406;DHT22;9329;48.720;9.588;2022-08-03T02:35:56;19.20;99.90
18406;DHT22;9329;48.720;9.588;2022-08-03T02:38:30;19.00;99.90
18406;DHT22;9329;48.720;9.588;2022-08-03T02:40:58;19.10;99.90
18406;DHT22;9329;48.720;9.588;2022-08-03T02:43:26;19.50;99.90
18406;DHT22;9329;48.720;9.588;2022-08-03T02:45:56;19.40;99.90
18406;DHT22;9329;48.720;9.588;2022-08-03T02:48:27;19.20;99.90
18406;DHT22;9329;48.720;9.588;2022-08-03T02:50:57;18.80;99.90
18406;DHT22;9329;48.720;9.588;2022-08-03T02:53:25;18.50;99.90
18406;DHT22;9329;48.720;9.588;2022-08-03T02:55:54;18.80;99.90
18406;DHT22;9329;48.720;9.588;2022-08-03T02:58:22;18.50;99.90
18406;DHT22;9329;48.720;9.588;2022-08-03T03:00:50;18.80;99.90
18406;DHT22;9329;48.720;9.588;2022-08-03T03:03:18;18.90;99.90
18406;DHT22;9329;48.720;9.588;2022-08-03T03:05:47;18.90;99.90
18406;DHT22;9329;48.720;9.588;2022-08-03T03:08:18;19.20;99.90
18406;DHT22;9329;48.720;9.588;2022-08-03T03:10:46;19.00;99.90
18406;DHT22;9329;48.720;9.588;2022-08-03T03:13:14;18.80;99.90
18406;DHT22;9329;48.720;9.588;2022-08-03T03:15:42;18.60;99.90
18406;DHT22;9329;48.720;9.588;2022-08-03T03:18:11;18.60;99.90
18406;DHT22;9329;48.720;9.588;2022-08-03T03:20:40;18.70;99.90
18406;DHT22;9329;48.720;9.588;2022-08-03T03:23:09;18.40;99.90
18406;DHT22;9329;48.720;9.588;2022-08-03T03:25:39;19.10;99.90
18406;DHT22;9329;48.720;9.588;2022-08-03T03:28:07;19.20;99.90
18406;DHT22;9329;48.720;9.588;2022-08-03T03:30:34;19.00;99.90
18406;DHT22;9329;48.720;9.588;2022-08-03T03:33:01;18.80;99.90
18406;DHT22;9329;48.720;9.588;2022-08-03T03:35:28;18.50;99.90
18406;DHT22;9329;48.720;9.588;2022-08-03T03:37:56;18.30;99.90
18406;DHT22;9329;48.720;9.588;2022-08-03T03:40:23;18.70;99.90
18406;DHT22;9329;48.720;9.588;2022-08-03T03:42:51;18.60;99.90
18406;DHT22;9329;48.720;9.588;2022-08-03T03:45:19;18.60;99.90
18406;DHT22;9329;48.720;9.588;2022-08-03T03:47:47;18.40;99.90
18406;DHT22;9329;48.720;9.588;2022-08-03T03:50:17;18.30;99.90
18406;DHT22;9329;48.720;9.588;2022-08-03T03:52:45;18.10;99.90
18406;DHT22;9329;48.720;9.588;2022-08-03T03:55:15;18.00;99.90
18406;DHT22;9329;48.720;9.588;2022-08-03T03:57:42;18.40;99.90
18406;DHT22;9329;48.720;9.588;2022-08-03T04:00:12;18.80;99.90
18406;DHT22;9329;48.720;9.588;2022-08-03T04:02:40;18.50;99.90
18406;DHT22;9329;48.720;9.588;2022-08-03T04:05:07;18.40;99.90
18406;DHT22;9329;48.720;9.588;2022-08-03T04:07:57;18.60;99.90
18406;DHT22;9329;48.720;9.588;2022-08-03T04:10:45;18.50;99.90
18406;DHT22;9329;48.720;9.588;2022-08-03T04:13:28;18.50;99.90
18406;DHT22;9329;48.720;9.588;2022-08-03T04:15:57;18.70;99.90
18406;DHT22;9329;48.720;9.588;2022-08-03T04:18:26;18.70;99.90
18406;DHT22;9329;48.720;9.588;2022-08-03T04:20:56;18.60;99.90
18406;DHT22;9329;48.720;9.588;2022-08-03T04:23:26;18.50;99.90
18406;DHT22;9329;48.720;9.588;2022-08-03T04:25:55;18.30;99.90
18406;DHT22;9329;48.720;9.588;2022-08-03T04:28:23;18.30;99.90
18406;DHT22;9329;48.720;9.588;2022-08-03T04:30:52;18.40;99.90
18406;DHT22;9329;48.720;9.588;2022-08-03T04:33:21;18.40;99.90
18406;DHT22;9329;48.720;9.588;2022-08-03T04:35:51;18.80;99.90
18406;DHT22;9329;48.720;9.588;2022-08-03T04:38:22;18.90;99.90
18406;DHT22;9329;48.720;9.588;2022-08-03T04:40:52;18.60;99.90
18406;DHT22;9329;48.720;9.588;2022-08-03T04:43:21;18.60;99.90
18406;DHT22;9329;48.720;9.588;2022-08-03T04:45:48;18.50;99.90
18406;DHT22;9329;48.720;9.588;2022-08-03T04:48:18;18.70;99.90
18406;DHT22;9329;48.720;9.588;2022-08-03T04:50:47;19.00;99.90
18406;DHT22;9329;48.720;9.588;2022-08-03T04:53:15;19.20;99.90
18406;DHT22;9329;48.720;9.588;2022-08-03T04:55:42;19.30;99.90
18406;DHT22;9329;48.720;9.588;2022-08-03T04:58:10;19.40;99.90
18406;DHT22;9329;48.720;9.588;2022-08-03T05:00:37;19.40;99.90
18406;DHT22;9329;48.720;9.588;2022-08-03T05:03:04;19.20;99.90
18406;DHT22;9329;48.720;9.588;2022-08-03T05:05:31;19.40;99.90
18406;DHT22;9329;48.720;9.588;2022-08-03T05:07:59;19.50;99.90
18406;DHT22;9329;48.720;9.588;2022-08-03T05:10:26;19.60;99.90
18406;DHT22;9329;48.720;9.588;2022-08-03T05:12:53;19.50;99.90
18406;DHT22;9329;48.720;9.588;2022-08-03T05:15:20;19.60;99.90
18406;DHT22;9329;48.720;9.588;2022-08-03T05:17:47;19.70;99.90
18406;DHT22;9329;48.720;9.588;2022-08-03T05:20:14;19.60;99.90
18406;DHT22;9329;48.720;9.588;2022-08-03T05:22:41;19.80;99.90
18406;DHT22;9329;48.720;9.588;2022-08-03T05:25:10;19.60;99.90
18406;DHT22;9329;48.720;9.588;2022-08-03T05:27:37;19.70;99.90
18406;DHT22;9329;48.720;9.588;2022-08-03T05:30:05;19.60;99.90
18406;DHT22;9329;48.720;9.588;2022-08-03T05:32:32;19.90;99.90
18406;DHT22;9329;48.720;9.588;2022-08-03T05:34:59;20.00;99.90
18406;DHT22;9329;48.720;9.588;2022-08-03T05:37:26;20.20;99.90
18406;DHT22;9329;48.720;9.588;2022-08-03T05:39:53;20.30;99.90
18406;DHT22;9329;48.720;9.588;2022-08-03T05:42:21;20.20;99.90
18406;DHT22;9329;48.720;9.588;2022-08-03T05:44:48;20.60;99.90
18406;DHT22;9329;48.720;9.588;2022-08-03T05:47:15;20.40;99.90
18406;DHT22;9329;48.720;9.588;2022-08-03T05:49:42;20.40;99.90
18406;DHT22;9329;48.720;9.588;2022-08-03T05:52:09;20.60;99.90
18406;DHT22;9329;48.720;9.588;2022-08-03T05:54:36;20.70;99.90
18406;DHT22;9329;48.720;9.588;2022-08-03T05:57:04;20.80;99.90
18406;DHT22;9329;48.720;9.588;2022-08-03T05:59:32;20.90;99.90
18406;DHT22;9329;48.720;9.588;2022-08-03T06:01:59;21.00;99.90
18406;DHT22;9329;48.720;9.588;2022-08-03T06:04:26;21.30;99.90
18406;DHT22;9329;48.720;9.588;2022-08-03T06:06:53;21.40;99.90
18406;DHT22;9329;48.720;9.588;2022-08-03T06:09:20;21.60;99.90
18406;DHT22;9329;48.720;9.588;2022-08-03T06:11:47;21.90;99.90
18406;DHT22;9329;48.720;9.588;2022-08-03T06:14:14;22.10;99.90
18406;DHT22;9329;48.720;9.588;2022-08-03T06:16:43;22.00;99.90
18406;DHT22;9329;48.720;9.588;2022-08-03T06:19:10;22.20;99.90
18406;DHT22;9329;48.720;9.588;2022-08-03T06:21:37;22.30;99.90
18406;DHT22;9329;48.720;9.588;2022-08-03T06:24:06;22.30;99.90
18406;DHT22;9329;48.720;9.588;2022-08-03T06:26:33;22.40;99.90
18406;DHT22;9329;48.720;9.588;2022-08-03T06:29:00;22.60;99.90
18406;DHT22;9329;48.720;9.588;2022-08-03T06:31:27;22.60;99.90
18406;DHT22;9329;48.720;9.588;2022-08-03T06:33:56;22.50;99.90
18406;DHT22;9329;48.720;9.588;2022-08-03T06:36:23;22.80;99.90
18406;DHT22;9329;48.720;9.588;2022-08-03T06:38:56;23.10;99.90
18406;DHT22;9329;48.720;9.588;2022-08-03T06:41:23;23.30;99.90
18406;DHT22;9329;48.720;9.588;2022-08-03T06:43:50;23.40;99.90
18406;DHT22;9329;48.720;9.588;2022-08-03T06:46:17;23.80;99.90
18406;DHT22;9329;48.720;9.588;2022-08-03T06:48:44;23.80;99.90
18406;DHT22;9329;48.720;9.588;2022-08-03T06:51:13;23.90;99.90
18406;DHT22;9329;48.720;9.588;2022-08-03T06:53:40;24.20;99.90
18406;DHT22;9329;48.720;9.588;2022-08-03T06:56:08;24.10;99.90
18406;DHT22;9329;48.720;9.588;2022-08-03T06:58:35;24.00;99.90
18406;DHT22;9329;48.720;9.588;2022-08-03T07:01:02;24.20;99.90
18406;DHT22;9329;48.720;9.588;2022-08-03T07:03:29;24.40;99.90
18406;DHT22;9329;48.720;9.588;2022-08-03T07:05:56;24.60;99.90
18406;DHT22;9329;48.720;9.588;2022-08-03T07:08:24;24.90;99.90
18406;DHT22;9329;48.720;9.588;2022-08-03T07:10:51;25.00;99.90
18406;DHT22;9329;48.720;9.588;2022-08-03T07:13:19;25.00;99.90
18406;DHT22;9329;48.720;9.588;2022-08-03T07:15:46;25.20;99.90
18406;DHT22;9329;48.720;9.588;2022-08-03T07:18:13;25.10;99.90
18406;DHT22;9329;48.720;9.588;2022-08-03T07:20:40;25.40;99.90
18406;DHT22;9329;48.720;9.588;2022-08-03T07:23:07;25.30;99.90
18406;DHT22;9329;48.720;9.588;2022-08-03T07:25:36;25.40;99.90
18406;DHT22;9329;48.720;9.588;2022-08-03T07:28:03;25.50;99.90
18406;DHT22;9329;48.720;9.588;2022-08-03T07:30:31;25.70;99.90
18406;DHT22;9329;48.720;9.588;2022-08-03T07:32:58;25.80;99.90
18406;DHT22;9329;48.720;9.588;2022-08-03T07:35:26;25.70;99.90
18406;DHT22;9329;48.720;9.588;2022-08-03T07:37:53;25.90;99.90
18406;DHT22;9329;48.720;9.588;2022-08-03T07:40:20;25.80;99.90
18406;DHT22;9329;48.720;9.588;2022-08-03T07:42:48;26.00;99.90
18406;DHT22;9329;48.720;9.588;2022-08-03T07:45:16;26.20;99.90
18406;DHT22;9329;48.720;9.588;2022-08-03T07:47:43;26.20;99.90
18406;DHT22;9329;48.720;9.588;2022-08-03T07:50:10;26.40;99.90
18406;DHT22;9329;48.720;9.588;2022-08-03T07:52:37;26.80;99.90
18406;DHT22;9329;48.720;9.588;2022-08-03T07:55:14;26.80;99.90
18406;DHT22;9329;48.720;9.588;2022-08-03T07:57:41;27.00;99.90
18406;DHT22;9329;48.720;9.588;2022-08-03T08:00:15;27.20;99.90
18406;DHT22;9329;48.720;9.588;2022-08-03T08:02:43;26.90;99.90
18406;DHT22;9329;48.720;9.588;2022-08-03T08:05:10;27.10;99.90
18406;DHT22;9329;48.720;9.588;2022-08-03T08:07:39;27.30;99.90
18406;DHT22;9329;48.720;9.588;2022-08-03T08:10:07;27.30;99.90
18406;DHT22;9329;48.720;9.588;2022-08-03T08:12:36;27.60;99.90
18406;DHT22;9329;48.720;9.588;2022-08-03T08:15:04;27.80;99.90
18406;DHT22;9329;48.720;9.588;2022-08-03T08:17:40;27.60;99.90
18406;DHT22;9329;48.720;9.588;2022-08-03T08:20:09;27.80;99.90
18406;DHT22;9329;48.720;9.588;2022-08-03T08:22:36;27.90;99.90
18406;DHT22;9329;48.720;9.588;2022-08-03T08:25:04;28.10;99.90
18406;DHT22;9329;48.720;9.588;2022-08-03T08:27:31;28.00;99.90
18406;DHT22;9329;48.720;9.588;2022-08-03T08:29:58;28.20;99.90
18406;DHT22;9329;48.720;9.588;2022-08-03T08:32:25;28.60;99.90
18406;DHT22;9329;48.720;9.588;2022-08-03T08:34:54;28.70;99.90
18406;DHT22;9329;48.720;9.588;2022-08-03T08:37:22;28.80;99.90
18406;DHT22;9329;48.720;9.588;2022-08-03T08:39:49;28.90;99.90
18406;DHT22;9329;48.720;9.588;2022-08-03T08:42:16;29.00;99.90
18406;DHT22;9329;48.720;9.588;2022-08-03T08:44:43;29.30;99.90
18406;DHT22;9329;48.720;9.588;2022-08-03T08:47:11;29.40;99.90
18406;DHT22;9329;48.720;9.588;2022-08-03T08:49:40;29.30;99.90
18406;DHT22;9329;48.720;9.588;2022-08-03T08:52:09;29.40;99.90
18406;DHT22;9329;48.720;9.588;2022-08-03T08:54:40;29.50;99.90
18406;DHT22;9329;48.720;9.588;2022-08-03T08:57:08;29.70;99.90
18406;DHT22;9329;48.720;9.588;2022-08-03T08:59:36;29.80;99.50
18406;DHT22;9329;48.720;9.588;2022-08-03T09:02:03;29.90;99.90
18406;DHT22;9329;48.720;9.588;2022-08-03T09:04:32;30.00;98.60
18406;DHT22;9329;48.720;9.588;2022-08-03T09:07:00;30.10;98.50
18406;DHT22;9329;48.720;9.588;2022-08-03T09:09:30;30.00;98.60
18406;DHT22;9329;48.720;9.588;2022-08-03T09:11:57;30.00;99.00
18406;DHT22;9329;48.720;9.588;2022-08-03T09:14:24;30.10;97.60
18406;DHT22;9329;48.720;9.588;2022-08-03T09:16:55;30.20;98.50
18406;DHT22;9329;48.720;9.588;2022-08-03T09:19:25;30.20;97.80
18406;DHT22;9329;48.720;9.588;2022-08-03T09:22:07;30.50;95.80
18406;DHT22;9329;48.720;9.588;2022-08-03T09:24:37;30.80;96.10
18406;DHT22;9329;48.720;9.588;2022-08-03T09:27:06;30.70;92.20
18406;DHT22;9329;48.720;9.588;2022-08-03T09:29:37;30.80;93.50
18406;DHT22;9329;48.720;9.588;2022-08-03T09:32:04;31.20;93.20
18406;DHT22;9329;48.720;9.588;2022-08-03T09:34:31;31.20;90.60
18406;DHT22;9329;48.720;9.588;2022-08-03T09:36:58;31.20;91.50
18406;DHT22;9329;48.720;9.588;2022-08-03T09:39:26;31.20;91.00
18406;DHT22;9329;48.720;9.588;2022-08-03T09:42:09;31.40;90.70
18406;DHT22;9329;48.720;9.588;2022-08-03T09:44:37;31.20;90.60
18406;DHT22;9329;48.720;9.588;2022-08-03T09:47:07;31.30;88.70
18406;DHT22;9329;48.720;9.588;2022-08-03T09:49:36;31.50;87.60
18406;DHT22;9329;48.720;9.588;2022-08-03T09:52:12;31.70;84.00
18406;DHT22;9329;48.720;9.588;2022-08-03T09:54:40;31.70;78.00
18406;DHT22;9329;48.720;9.588;2022-08-03T09:57:19;31.50;80.80
18406;DHT22;9329;48.720;9.588;2022-08-03T09:59:47;31.70;77.00
18406;DHT22;9329;48.720;9.588;2022-08-03T10:02:22;32.00;82.90
18406;DHT22;9329;48.720;9.588;2022-08-03T10:04:50;32.10;82.60
18406;DHT22;9329;48.720;9.588;2022-08-03T10:07:18;32.40;75.40
18406;DHT22;9329;48.720;9.588;2022-08-03T10:09:53;32.20;78.70
18406;DHT22;9329;48.720;9.588;2022-08-03T10:12:22;32.20;77.20
18406;DHT22;9329;48.720;9.588;2022-08-03T10:14:50;32.60;73.70
18406;DHT22;9329;48.720;9.588;2022-08-03T10:17:18;32.40;77.90
18406;DHT22;9329;48.720;9.588;2022-08-03T10:19:45;32.10;75.20
18406;DHT22;9329;48.720;9.588;2022-08-03T10:22:13;32.20;76.90
18406;DHT22;9329;48.720;9.588;2022-08-03T10:24:47;32.50;79.50
18406;DHT22;9329;48.720;9.588;2022-08-03T10:27:16;32.60;76.80
18406;DHT22;9329;48.720;9.588;2022-08-03T10:29:54;32.70;77.30
18406;DHT22;9329;48.720;9.588;2022-08-03T10:32:27;32.60;73.40
18406;DHT22;9329;48.720;9.588;2022-08-03T10:35:01;32.60;73.90
18406;DHT22;9329;48.720;9.588;2022-08-03T10:37:30;32.70;73.10
18406;DHT22;9329;48.720;9.588;2022-08-03T10:39:59;32.90;73.50
18406;DHT22;9329;48.720;9.588;2022-08-03T10:42:28;32.80;74.00
18406;DHT22;9329;48.720;9.588;2022-08-03T10:45:04;32.90;74.50
18406;DHT22;9329;48.720;9.588;2022-08-03T10:47:32;32.90;68.40
18406;DHT22;9329;48.720;9.588;2022-08-03T10:49:59;32.60;70.70
18406;DHT22;9329;48.720;9.588;2022-08-03T10:52:26;32.60;70.20
18406;DHT22;9329;48.720;9.588;2022-08-03T10:54:53;32.70;73.70
18406;DHT22;9329;48.720;9.588;2022-08-03T10:57:41;32.40;75.70
18406;DHT22;9329;48.720;9.588;2022-08-03T11:00:10;32.50;74.50
18406;DHT22;9329;48.720;9.588;2022-08-03T11:05:26;32.40;70.90
18406;DHT22;9329;48.720;9.588;2022-08-03T11:10:39;32.50;69.40
18406;DHT22;9329;48.720;9.588;2022-08-03T11:13:06;32.50;67.70
18406;DHT22;9329;48.720;9.588;2022-08-03T11:15:34;32.40;69.20
18406;DHT22;9329;48.720;9.588;2022-08-03T11:18:06;32.50;70.00
18406;DHT22;9329;48.720;9.588;2022-08-03T11:20:44;32.40;66.80
18406;DHT22;9329;48.720;9.588;2022-08-03T11:23:11;32.50;68.10
18406;DHT22;9329;48.720;9.588;2022-08-03T11:28:24;32.50;66.40
18406;DHT22;9329;48.720;9.588;2022-08-03T11:30:53;32.50;66.90
18406;DHT22;9329;48.720;9.588;2022-08-03T11:33:29;32.30;66.30
18406;DHT22;9329;48.720;9.588;2022-08-03T11:35:57;32.50;67.50
18406;DHT22;9329;48.720;9.588;2022-08-03T11:38:24;32.50;68.20
18406;DHT22;9329;48.720;9.588;2022-08-03T11:40:52;32.40;69.20
18406;DHT22;9329;48.720;9.588;2022-08-03T11:46:14;32.70;69.50
18406;DHT22;9329;48.720;9.588;2022-08-03T11:48:46;32.80;66.40
18406;DHT22;9329;48.720;9.588;2022-08-03T11:51:20;32.90;67.00
18406;DHT22;9329;48.720;9.588;2022-08-03T11:53:50;33.00;62.60
18406;DHT22;9329;48.720;9.588;2022-08-03T11:56:17;33.00;68.00
18406;DHT22;9329;48.720;9.588;2022-08-03T11:58:45;33.20;69.00
18406;DHT22;9329;48.720;9.588;2022-08-03T12:01:12;33.10;63.10
18406;DHT22;9329;48.720;9.588;2022-08-03T12:03:42;33.00;61.60
18406;DHT22;9329;48.720;9.588;2022-08-03T12:06:09;33.00;66.00
18406;DHT22;9329;48.720;9.588;2022-08-03T12:08:37;33.20;67.60
18406;DHT22;9329;48.720;9.588;2022-08-03T12:11:05;33.40;64.50
18406;DHT22;9329;48.720;9.588;2022-08-03T12:13:36;33.30;61.50
18406;DHT22;9329;48.720;9.588;2022-08-03T12:16:04;33.50;63.60
18406;DHT22;9329;48.720;9.588;2022-08-03T12:18:31;34.10;64.30
18406;DHT22;9329;48.720;9.588;2022-08-03T12:21:05;34.80;62.10
18406;DHT22;9329;48.720;9.588;2022-08-03T12:23:33;35.70;58.70
18406;DHT22;9329;48.720;9.588;2022-08-03T12:26:02;37.00;55.80
18406;DHT22;9329;48.720;9.588;2022-08-03T12:28:29;38.70;53.20
18406;DHT22;9329;48.720;9.588;2022-08-03T12:31:00;41.00;51.90
18406;DHT22;9329;48.720;9.588;2022-08-03T12:33:28;43.30;44.80
18406;DHT22;9329;48.720;9.588;2022-08-03T12:36:05;44.70;43.00
18406;DHT22;9329;48.720;9.588;2022-08-03T12:38:34;46.30;34.60
18406;DHT22;9329;48.720;9.588;2022-08-03T12:41:05;47.10;34.10
18406;DHT22;9329;48.720;9.588;2022-08-03T12:43:33;48.20;30.50
18406;DHT22;9329;48.720;9.588;2022-08-03T12:46:08;48.50;32.10
18406;DHT22;9329;48.720;9.588;2022-08-03T12:48:35;49.20;31.80
18406;DHT22;9329;48.720;9.588;2022-08-03T12:51:10;49.40;30.50
18406;DHT22;9329;48.720;9.588;2022-08-03T12:53:37;50.20;29.20
18406;DHT22;9329;48.720;9.588;2022-08-03T12:56:04;50.50;29.70
18406;DHT22;9329;48.720;9.588;2022-08-03T12:58:33;50.60;28.10
18406;DHT22;9329;48.720;9.588;2022-08-03T13:01:02;50.80;28.10
18406;DHT22;9329;48.720;9.588;2022-08-03T13:03:38;51.90;28.20
18406;DHT22;9329;48.720;9.588;2022-08-03T13:06:11;51.90;27.90
18406;DHT22;9329;48.720;9.588;2022-08-03T13:08:39;50.00;24.30
18406;DHT22;9329;48.720;9.588;2022-08-03T13:11:20;49.20;25.00
18406;DHT22;9329;48.720;9.588;2022-08-03T13:13:48;49.20;25.50
18406;DHT22;9329;48.720;9.588;2022-08-03T13:16:15;50.40;26.70
18406;DHT22;9329;48.720;9.588;2022-08-03T13:21:22;49.70;25.10
18406;DHT22;9329;48.720;9.588;2022-08-03T13:23:49;51.40;26.70
18406;DHT22;9329;48.720;9.588;2022-08-03T13:26:16;51.90;27.10
18406;DHT22;9329;48.720;9.588;2022-08-03T13:28:43;52.90;25.50
18406;DHT22;9329;48.720;9.588;2022-08-03T13:31:10;52.80;24.00
18406;DHT22;9329;48.720;9.588;2022-08-03T13:33:37;52.70;24.90
18406;DHT22;9329;48.720;9.588;2022-08-03T13:36:06;52.70;24.50
18406;DHT22;9329;48.720;9.588;2022-08-03T13:38:34;52.50;24.20
18406;DHT22;9329;48.720;9.588;2022-08-03T13:41:02;52.80;22.60
18406;DHT22;9329;48.720;9.588;2022-08-03T13:43:29;52.60;23.50
18406;DHT22;9329;48.720;9.588;2022-08-03T13:45:56;52.10;24.50
18406;DHT22;9329;48.720;9.588;2022-08-03T13:48:23;52.40;25.60
18406;DHT22;9329;48.720;9.588;2022-08-03T13:50:51;53.70;24.30
18406;DHT22;9329;48.720;9.588;2022-08-03T13:53:18;53.40;22.70
18406;DHT22;9329;48.720;9.588;2022-08-03T13:55:47;54.80;23.70
18406;DHT22;9329;48.720;9.588;2022-08-03T13:58:14;54.30;21.90
18406;DHT22;9329;48.720;9.588;2022-08-03T14:00:41;54.20;21.90
18406;DHT22;9329;48.720;9.588;2022-08-03T14:03:08;53.20;22.00
18406;DHT22;9329;48.720;9.588;2022-08-03T14:05:36;52.60;23.80
18406;DHT22;9329;48.720;9.588;2022-08-03T14:08:05;52.90;23.40
18406;DHT22;9329;48.720;9.588;2022-08-03T14:10:34;52.50;23.80
18406;DHT22;9329;48.720;9.588;2022-08-03T14:13:03;54.90;23.40
18406;DHT22;9329;48.720;9.588;2022-08-03T14:15:30;55.70;22.80
18406;DHT22;9329;48.720;9.588;2022-08-03T14:17:57;54.90;21.00
18406;DHT22;9329;48.720;9.588;2022-08-03T14:20:25;54.40;22.60
18406;DHT22;9329;48.720;9.588;2022-08-03T14:22:53;53.40;22.80
18406;DHT22;9329;48.720;9.588;2022-08-03T14:25:20;54.40;21.10
18406;DHT22;9329;48.720;9.588;2022-08-03T14:27:47;52.60;21.20
18406;DHT22;9329;48.720;9.588;2022-08-03T14:30:15;50.50;22.50
18406;DHT22;9329;48.720;9.588;2022-08-03T14:32:42;51.40;22.40
18406;DHT22;9329;48.720;9.588;2022-08-03T14:35:09;51.70;22.80
18406;DHT22;9329;48.720;9.588;2022-08-03T14:37:36;51.60;23.80
18406;DHT22;9329;48.720;9.588;2022-08-03T14:40:05;52.50;22.80
18406;DHT22;9329;48.720;9.588;2022-08-03T14:42:32;53.60;21.80
18406;DHT22;9329;48.720;9.588;2022-08-03T14:44:59;53.50;23.00
18406;DHT22;9329;48.720;9.588;2022-08-03T14:47:28;53.10;22.40
18406;DHT22;9329;48.720;9.588;2022-08-03T14:49:55;53.60;22.60
18406;DHT22;9329;48.720;9.588;2022-08-03T14:52:22;54.60;22.00
18406;DHT22;9329;48.720;9.588;2022-08-03T14:54:49;55.10;21.70
18406;DHT22;9329;48.720;9.588;2022-08-03T14:57:16;56.00;21.40
18406;DHT22;9329;48.720;9.588;2022-08-03T14:59:43;57.10;22.10
18406;DHT22;9329;48.720;9.588;2022-08-03T15:02:10;56.50;20.50
18406;DHT22;9329;48.720;9.588;2022-08-03T15:04:38;56.70;19.70
18406;DHT22;9329;48.720;9.588;2022-08-03T15:07:08;55.20;21.20
18406;DHT22;9329;48.720;9.588;2022-08-03T15:09:35;53.90;18.90
18406;DHT22;9329;48.720;9.588;2022-08-03T15:12:04;55.50;19.80
18406;DHT22;9329;48.720;9.588;2022-08-03T15:14:31;55.30;19.40
18406;DHT22;9329;48.720;9.588;2022-08-03T15:16:58;55.00;21.10
18406;DHT22;9329;48.720;9.588;2022-08-03T15:19:25;56.10;21.90
18406;DHT22;9329;48.720;9.588;2022-08-03T15:21:54;57.20;21.10
18406;DHT22;9329;48.720;9.588;2022-08-03T15:24:21;57.60;19.90
18406;DHT22;9329;48.720;9.588;2022-08-03T15:26:48;57.80;19.10
18406;DHT22;9329;48.720;9.588;2022-08-03T15:29:16;57.20;20.30
18406;DHT22;9329;48.720;9.588;2022-08-03T15:31:43;56.90;20.80
18406;DHT22;9329;48.720;9.588;2022-08-03T15:34:10;57.90;20.70
18406;DHT22;9329;48.720;9.588;2022-08-03T15:36:37;58.70;18.70
18406;DHT22;9329;48.720;9.588;2022-08-03T15:39:06;56.90;19.20
18406;DHT22;9329;48.720;9.588;2022-08-03T15:41:33;56.30;20.40
18406;DHT22;9329;48.720;9.588;2022-08-03T15:44:02;56.90;20.50
18406;DHT22;9329;48.720;9.588;2022-08-03T15:46:29;55.50;21.10
18406;DHT22;9329;48.720;9.588;2022-08-03T15:48:57;54.70;20.50
18406;DHT22;9329;48.720;9.588;2022-08-03T15:51:24;54.70;21.20
18406;DHT22;9329;48.720;9.588;2022-08-03T15:53:51;55.00;19.90
18406;DHT22;9329;48.720;9.588;2022-08-03T15:56:20;55.20;21.00
18406;DHT22;9329;48.720;9.588;2022-08-03T15:58:47;55.20;20.00
18406;DHT22;9329;48.720;9.588;2022-08-03T16:01:14;55.30;20.50
18406;DHT22;9329;48.720;9.588;2022-08-03T16:03:41;54.60;20.20
18406;DHT22;9329;48.720;9.588;2022-08-03T16:06:08;52.10;20.70
18406;DHT22;9329;48.720;9.588;2022-08-03T16:08:35;48.80;23.80